sensor_id;sensor_type;location;lat;lon;timestamp;P1;durP1;ratioP1;P2;durP2;ratioP2
69910;SDS011;63555;49.920;17.868;2023-08-20T00:03:58;12.50;;;8.30;;
69910;SDS011;63555;49.920;17.868;2023-08-20T00:08:59;15.52;;;7.93;;
69910;SDS011;63555;49.920;17.868;2023-08-20T00:14:00;14.13;;;8.83;;
69910;SDS011;63555;49.920;17.868;2023-08-20T00:19:00;13.87;;;8.27;;
69910;SDS011;63555;49.920;17.868;2023-08-20T00:24:01;12.90;;;8.30;;
69910;SDS011;63555;49.920;17.868;2023-08-20T00:29:01;14.10;;;8.57;;
69910;SDS011;63555;49.920;17.868;2023-08-20T00:34:02;13.25;;;8.30;;
69910;SDS011;63555;49.920;17.868;2023-08-20T00:39:02;14.00;;;8.90;;
69910;SDS011;63555;49.920;17.868;2023-08-20T00:44:03;13.70;;;9.17;;
69910;SDS011;63555;49.920;17.868;2023-08-20T00:49:03;12.00;;;8.20;;
69910;SDS011;63555;49.920;17.868;2023-08-20T00:54:04;13.53;;;8.20;;
69910;SDS011;63555;49.920;17.868;2023-08-20T00:59:05;17.63;;;7.88;;
69910;SDS011;63555;49.920;17.868;2023-08-20T01:04:06;11.63;;;7.40;;
69910;SDS011;63555;49.920;17.868;2023-08-20T01:14:43;13.45;;;8.27;;
69910;SDS011;63555;49.920;17.868;2023-08-20T01:19:43;13.87;;;8.20;;
69910;SDS011;63555;49.920;17.868;2023-08-20T01:24:54;11.87;;;7.50;;
69910;SDS011;63555;49.920;17.868;2023-08-20T01:30:07;14.25;;;8.70;;
69910;SDS011;63555;49.920;17.868;2023-08-20T01:35:12;15.83;;;8.07;;
69910;SDS011;63555;49.920;17.868;2023-08-20T01:40:13;14.68;;;8.65;;
69910;SDS011;63555;49.920;17.868;2023-08-20T01:45:14;12.43;;;8.30;;
69910;SDS011;63555;49.920;17.868;2023-08-20T01:50:14;14.07;;;8.50;;
69910;SDS011;63555;49.920;17.868;2023-08-20T01:55:15;15.27;;;8.43;;
69910;SDS011;63555;49.920;17.868;2023-08-20T02:00:15;11.27;;;8.13;;
69910;SDS011;63555;49.920;17.868;2023-08-20T02:05:16;13.67;;;7.67;;
69910;SDS011;63555;49.920;17.868;2023-08-20T02:10:16;12.82;;;7.47;;
69910;SDS011;63555;49.920;17.868;2023-08-20T02:15:17;12.05;;;7.65;;
69910;SDS011;63555;49.920;17.868;2023-08-20T02:20:17;14.98;;;8.20;;
69910;SDS011;63555;49.920;17.868;2023-08-20T02:25:18;12.52;;;7.93;;
69910;SDS011;63555;49.920;17.868;2023-08-20T02:30:19;12.73;;;7.70;;
69910;SDS011;63555;49.920;17.868;2023-08-20T02:35:20;13.57;;;8.10;;
69910;SDS011;63555;49.920;17.868;2023-08-20T02:40:20;11.93;;;8.17;;
69910;SDS011;63555;49.920;17.868;2023-08-20T02:45:21;12.80;;;8.43;;
69910;SDS011;63555;49.920;17.868;2023-08-20T02:50:21;12.47;;;7.80;;
69910;SDS011;63555;49.920;17.868;2023-08-20T02:55:21;11.63;;;7.70;;
69910;SDS011;63555;49.920;17.868;2023-08-20T03:00:22;15.20;;;7.77;;
69910;SDS011;63555;49.920;17.868;2023-08-20T03:05:22;12.00;;;7.70;;
69910;SDS011;63555;49.920;17.868;2023-08-20T03:10:23;16.27;;;8.13;;
69910;SDS011;63555;49.920;17.868;2023-08-20T03:15:24;11.77;;;7.77;;
69910;SDS011;63555;49.920;17.868;2023-08-20T03:20:24;15.50;;;8.10;;
69910;SDS011;63555;49.920;17.868;2023-08-20T03:25:24;12.73;;;7.90;;
69910;SDS011;63555;49.920;17.868;2023-08-20T03:30:25;14.13;;;8.10;;
69910;SDS011;63555;49.920;17.868;2023-08-20T03:35:25;12.53;;;8.10;;
69910;SDS011;63555;49.920;17.868;2023-08-20T03:40:27;17.43;;;8.33;;
69910;SDS011;63555;49.920;17.868;2023-08-20T03:45:27;13.45;;;7.43;;
69910;SDS011;63555;49.920;17.868;2023-08-20T03:50:30;14.35;;;8.07;;
69910;SDS011;63555;49.920;17.868;2023-08-20T03:55:30;12.47;;;8.40;;
69910;SDS011;63555;49.920;17.868;2023-08-20T04:00:30;13.37;;;8.73;;
69910;SDS011;63555;49.920;17.868;2023-08-20T04:05:35;14.13;;;8.75;;
69910;SDS011;63555;49.920;17.868;2023-08-20T04:10:42;13.18;;;8.27;;
69910;SDS011;63555;49.920;17.868;2023-08-20T04:15:43;13.48;;;8.77;;
69910;SDS011;63555;49.920;17.868;2023-08-20T04:20:43;13.97;;;8.70;;
69910;SDS011;63555;49.920;17.868;2023-08-20T04:25:44;14.73;;;9.47;;
69910;SDS011;63555;49.920;17.868;2023-08-20T04:30:45;13.10;;;8.93;;
69910;SDS011;63555;49.920;17.868;2023-08-20T04:35:45;14.27;;;9.27;;
69910;SDS011;63555;49.920;17.868;2023-08-20T04:40:46;13.37;;;8.87;;
69910;SDS011;63555;49.920;17.868;2023-08-20T04:45:47;15.48;;;9.95;;
69910;SDS011;63555;49.920;17.868;2023-08-20T04:50:49;16.77;;;10.10;;
69910;SDS011;63555;49.920;17.868;2023-08-20T04:55:49;14.70;;;9.23;;
69910;SDS011;63555;49.920;17.868;2023-08-20T05:00:50;14.57;;;9.90;;
69910;SDS011;63555;49.920;17.868;2023-08-20T05:05:50;16.13;;;9.67;;
69910;SDS011;63555;49.920;17.868;2023-08-20T05:10:50;16.00;;;10.00;;
69910;SDS011;63555;49.920;17.868;2023-08-20T05:15:51;17.10;;;9.93;;
69910;SDS011;63555;49.920;17.868;2023-08-20T05:20:51;21.17;;;10.93;;
69910;SDS011;63555;49.920;17.868;2023-08-20T05:25:52;16.73;;;11.17;;
69910;SDS011;63555;49.920;17.868;2023-08-20T05:30:55;19.43;;;12.00;;
69910;SDS011;63555;49.920;17.868;2023-08-20T05:35:57;18.08;;;11.27;;
69910;SDS011;63555;49.920;17.868;2023-08-20T05:40:59;15.05;;;10.85;;
69910;SDS011;63555;49.920;17.868;2023-08-20T05:45:59;16.20;;;10.13;;
69910;SDS011;63555;49.920;17.868;2023-08-20T05:51:00;18.90;;;10.37;;
69910;SDS011;63555;49.920;17.868;2023-08-20T05:56:00;12.53;;;8.73;;
69910;SDS011;63555;49.920;17.868;2023-08-20T06:01:01;12.33;;;7.60;;
69910;SDS011;63555;49.920;17.868;2023-08-20T06:06:01;12.13;;;7.43;;
69910;SDS011;63555;49.920;17.868;2023-08-20T06:11:02;12.27;;;7.65;;
69910;SDS011;63555;49.920;17.868;2023-08-20T06:16:02;9.83;;;7.33;;
69910;SDS011;63555;49.920;17.868;2023-08-20T06:21:03;9.70;;;7.03;;
69910;SDS011;63555;49.920;17.868;2023-08-20T06:26:04;12.27;;;6.67;;
69910;SDS011;63555;49.920;17.868;2023-08-20T06:31:04;10.33;;;6.87;;
69910;SDS011;63555;49.920;17.868;2023-08-20T06:36:04;10.93;;;7.40;;
69910;SDS011;63555;49.920;17.868;2023-08-20T06:41:05;9.53;;;6.80;;
69910;SDS011;63555;49.920;17.868;2023-08-20T06:46:05;8.93;;;7.00;;
69910;SDS011;63555;49.920;17.868;2023-08-20T06:51:12;8.37;;;6.67;;
69910;SDS011;63555;49.920;17.868;2023-08-20T06:56:19;9.45;;;6.70;;
69910;SDS011;63555;49.920;17.868;2023-08-20T07:01:19;8.77;;;7.23;;
69910;SDS011;63555;49.920;17.868;2023-08-20T07:06:20;8.73;;;6.33;;
69910;SDS011;63555;49.920;17.868;2023-08-20T07:11:21;9.33;;;6.50;;
69910;SDS011;63555;49.920;17.868;2023-08-20T07:16:21;9.10;;;6.25;;
69910;SDS011;63555;49.920;17.868;2023-08-20T07:21:22;8.57;;;6.77;;
69910;SDS011;63555;49.920;17.868;2023-08-20T07:26:22;8.03;;;6.83;;
69910;SDS011;63555;49.920;17.868;2023-08-20T07:31:27;7.97;;;6.80;;
69910;SDS011;63555;49.920;17.868;2023-08-20T07:36:28;8.80;;;7.15;;
69910;SDS011;63555;49.920;17.868;2023-08-20T07:41:29;6.70;;;6.00;;
69910;SDS011;63555;49.920;17.868;2023-08-20T07:46:30;8.03;;;6.47;;
69910;SDS011;63555;49.920;17.868;2023-08-20T07:51:30;9.63;;;6.50;;
69910;SDS011;63555;49.920;17.868;2023-08-20T07:56:31;8.80;;;5.93;;
69910;SDS011;63555;49.920;17.868;2023-08-20T08:01:31;9.07;;;6.43;;
69910;SDS011;63555;49.920;17.868;2023-08-20T08:06:31;7.27;;;5.40;;
69910;SDS011;63555;49.920;17.868;2023-08-20T08:11:32;8.23;;;6.30;;
69910;SDS011;63555;49.920;17.868;2023-08-20T08:16:32;6.90;;;6.20;;
69910;SDS011;63555;49.920;17.868;2023-08-20T08:21:33;7.23;;;6.03;;
69910;SDS011;63555;49.920;17.868;2023-08-20T08:26:33;8.07;;;6.00;;
69910;SDS011;63555;49.920;17.868;2023-08-20T08:31:35;8.13;;;6.00;;
69910;SDS011;63555;49.920;17.868;2023-08-20T08:36:35;7.53;;;5.63;;
69910;SDS011;63555;49.920;17.868;2023-08-20T08:41:37;8.10;;;5.60;;
69910;SDS011;63555;49.920;17.868;2023-08-20T08:46:39;6.75;;;5.90;;
69910;SDS011;63555;49.920;17.868;2023-08-20T08:51:40;7.57;;;6.17;;
69910;SDS011;63555;49.920;17.868;2023-08-20T08:56:42;6.40;;;5.80;;
69910;SDS011;63555;49.920;17.868;2023-08-20T09:01:42;7.43;;;6.47;;
69910;SDS011;63555;49.920;17.868;2023-08-20T09:06:50;7.83;;;6.50;;
69910;SDS011;63555;49.920;17.868;2023-08-20T09:11:51;7.97;;;6.30;;
69910;SDS011;63555;49.920;17.868;2023-08-20T09:16:55;7.07;;;6.37;;
69910;SDS011;63555;49.920;17.868;2023-08-20T09:22:02;7.40;;;6.70;;
69910;SDS011;63555;49.920;17.868;2023-08-20T09:27:03;8.63;;;6.50;;
69910;SDS011;63555;49.920;17.868;2023-08-20T09:32:05;6.93;;;6.25;;
69910;SDS011;63555;49.920;17.868;2023-08-20T09:37:09;8.47;;;6.40;;
69910;SDS011;63555;49.920;17.868;2023-08-20T09:42:10;7.40;;;6.70;;
69910;SDS011;63555;49.920;17.868;2023-08-20T09:47:13;7.35;;;6.20;;
69910;SDS011;63555;49.920;17.868;2023-08-20T09:52:35;6.83;;;6.13;;
69910;SDS011;63555;49.920;17.868;2023-08-20T09:57:44;7.70;;;6.17;;
69910;SDS011;63555;49.920;17.868;2023-08-20T10:02:47;6.47;;;5.53;;
69910;SDS011;63555;49.920;17.868;2023-08-20T10:07:49;6.63;;;6.03;;
69910;SDS011;63555;49.920;17.868;2023-08-20T10:12:50;6.37;;;5.70;;
69910;SDS011;63555;49.920;17.868;2023-08-20T10:17:50;6.87;;;5.60;;
69910;SDS011;63555;49.920;17.868;2023-08-20T10:22:50;6.17;;;5.60;;
69910;SDS011;63555;49.920;17.868;2023-08-20T10:27:51;6.88;;;5.85;;
69910;SDS011;63555;49.920;17.868;2023-08-20T10:32:56;6.77;;;6.17;;
69910;SDS011;63555;49.920;17.868;2023-08-20T10:38:01;6.00;;;5.50;;
69910;SDS011;63555;49.920;17.868;2023-08-20T10:48:38;7.85;;;5.50;;
69910;SDS011;63555;49.920;17.868;2023-08-20T10:53:40;6.43;;;5.83;;
69910;SDS011;63555;49.920;17.868;2023-08-20T10:58:45;7.18;;;6.00;;
69910;SDS011;63555;49.920;17.868;2023-08-20T11:03:47;6.60;;;6.00;;
69910;SDS011;63555;49.920;17.868;2023-08-20T11:08:49;6.83;;;6.13;;
69910;SDS011;63555;49.920;17.868;2023-08-20T11:13:49;7.57;;;6.23;;
69910;SDS011;63555;49.920;17.868;2023-08-20T11:18:51;7.00;;;6.30;;
69910;SDS011;63555;49.920;17.868;2023-08-20T11:23:53;8.93;;;6.17;;
69910;SDS011;63555;49.920;17.868;2023-08-20T11:28:55;7.22;;;6.55;;
69910;SDS011;63555;49.920;17.868;2023-08-20T11:33:56;7.53;;;6.37;;
69910;SDS011;63555;49.920;17.868;2023-08-20T11:38:57;8.43;;;6.50;;
69910;SDS011;63555;49.920;17.868;2023-08-20T11:43:57;7.20;;;6.40;;
69910;SDS011;63555;49.920;17.868;2023-08-20T11:49:07;6.90;;;6.30;;
69910;SDS011;63555;49.920;17.868;2023-08-20T11:54:10;7.67;;;6.83;;
69910;SDS011;63555;49.920;17.868;2023-08-20T11:59:14;6.80;;;6.20;;
69910;SDS011;63555;49.920;17.868;2023-08-20T12:04:16;6.32;;;5.78;;
69910;SDS011;63555;49.920;17.868;2023-08-20T12:09:19;5.53;;;5.03;;
69910;SDS011;63555;49.920;17.868;2023-08-20T12:14:23;6.93;;;5.85;;
69910;SDS011;63555;49.920;17.868;2023-08-20T12:19:24;6.30;;;5.50;;
69910;SDS011;63555;49.920;17.868;2023-08-20T12:24:25;6.32;;;5.72;;
69910;SDS011;63555;49.920;17.868;2023-08-20T12:29:26;6.57;;;5.87;;
69910;SDS011;63555;49.920;17.868;2023-08-20T12:34:26;6.13;;;5.53;;
69910;SDS011;63555;49.920;17.868;2023-08-20T12:39:26;6.97;;;5.80;;
69910;SDS011;63555;49.920;17.868;2023-08-20T12:44:27;6.70;;;6.10;;
69910;SDS011;63555;49.920;17.868;2023-08-20T12:49:27;7.67;;;5.87;;
69910;SDS011;63555;49.920;17.868;2023-08-20T12:54:27;8.43;;;6.23;;
69910;SDS011;63555;49.920;17.868;2023-08-20T12:59:28;8.10;;;5.70;;
69910;SDS011;63555;49.920;17.868;2023-08-20T13:04:29;6.35;;;5.47;;
69910;SDS011;63555;49.920;17.868;2023-08-20T13:09:30;7.23;;;6.07;;
69910;SDS011;63555;49.920;17.868;2023-08-20T13:14:31;6.93;;;6.22;;
69910;SDS011;63555;49.920;17.868;2023-08-20T13:19:31;6.60;;;6.00;;
69910;SDS011;63555;49.920;17.868;2023-08-20T13:24:32;6.57;;;5.80;;
69910;SDS011;63555;49.920;17.868;2023-08-20T13:29:32;6.20;;;5.53;;
69910;SDS011;63555;49.920;17.868;2023-08-20T13:34:33;6.63;;;5.40;;
69910;SDS011;63555;49.920;17.868;2023-08-20T13:39:33;5.83;;;5.20;;
69910;SDS011;63555;49.920;17.868;2023-08-20T13:44:33;6.73;;;5.60;;
69910;SDS011;63555;49.920;17.868;2023-08-20T13:49:34;6.73;;;5.13;;
69910;SDS011;63555;49.920;17.868;2023-08-20T13:54:35;6.20;;;5.60;;
69910;SDS011;63555;49.920;17.868;2023-08-20T13:59:36;5.85;;;5.20;;
69910;SDS011;63555;49.920;17.868;2023-08-20T14:04:36;5.90;;;5.30;;
69910;SDS011;63555;49.920;17.868;2023-08-20T14:09:37;6.70;;;5.60;;
69910;SDS011;63555;49.920;17.868;2023-08-20T14:14:39;7.05;;;5.20;;
69910;SDS011;63555;49.920;17.868;2023-08-20T14:19:39;12.27;;;5.70;;
69910;SDS011;63555;49.920;17.868;2023-08-20T14:24:40;5.87;;;4.83;;
69910;SDS011;63555;49.920;17.868;2023-08-20T14:29:40;6.57;;;5.00;;
69910;SDS011;63555;49.920;17.868;2023-08-20T14:34:41;5.47;;;4.80;;
69910;SDS011;63555;49.920;17.868;2023-08-20T14:39:42;6.80;;;5.00;;
69910;SDS011;63555;49.920;17.868;2023-08-20T14:44:42;7.20;;;5.33;;
69910;SDS011;63555;49.920;17.868;2023-08-20T14:49:43;8.77;;;5.20;;
69910;SDS011;63555;49.920;17.868;2023-08-20T14:54:43;6.87;;;5.30;;
69910;SDS011;63555;49.920;17.868;2023-08-20T14:59:44;6.73;;;5.20;;
69910;SDS011;63555;49.920;17.868;2023-08-20T15:04:44;5.63;;;5.13;;
69910;SDS011;63555;49.920;17.868;2023-08-20T15:09:44;7.10;;;5.03;;
69910;SDS011;63555;49.920;17.868;2023-08-20T15:14:45;6.23;;;4.63;;
69910;SDS011;63555;49.920;17.868;2023-08-20T15:19:45;5.50;;;5.00;;
69910;SDS011;63555;49.920;17.868;2023-08-20T15:24:46;6.00;;;4.70;;
69910;SDS011;63555;49.920;17.868;2023-08-20T15:29:46;10.95;;;5.28;;
69910;SDS011;63555;49.920;17.868;2023-08-20T15:34:47;5.20;;;4.40;;
69910;SDS011;63555;49.920;17.868;2023-08-20T15:39:47;7.90;;;4.70;;
69910;SDS011;63555;49.920;17.868;2023-08-20T15:44:47;7.67;;;5.20;;
69910;SDS011;63555;49.920;17.868;2023-08-20T15:49:48;5.80;;;4.73;;
69910;SDS011;63555;49.920;17.868;2023-08-20T15:54:49;6.13;;;4.40;;
69910;SDS011;63555;49.920;17.868;2023-08-20T15:59:49;6.93;;;4.50;;
69910;SDS011;63555;49.920;17.868;2023-08-20T16:04:49;9.03;;;5.73;;
69910;SDS011;63555;49.920;17.868;2023-08-20T16:09:50;7.50;;;4.53;;
69910;SDS011;63555;49.920;17.868;2023-08-20T16:14:50;6.87;;;4.43;;
69910;SDS011;63555;49.920;17.868;2023-08-20T16:19:50;5.33;;;4.00;;
69910;SDS011;63555;49.920;17.868;2023-08-20T16:24:51;4.70;;;4.00;;
69910;SDS011;63555;49.920;17.868;2023-08-20T16:29:51;6.55;;;4.63;;
69910;SDS011;63555;49.920;17.868;2023-08-20T16:34:52;7.33;;;4.50;;
69910;SDS011;63555;49.920;17.868;2023-08-20T16:39:52;5.87;;;4.50;;
69910;SDS011;63555;49.920;17.868;2023-08-20T16:44:53;6.30;;;4.30;;
69910;SDS011;63555;49.920;17.868;2023-08-20T16:49:53;10.83;;;4.50;;
69910;SDS011;63555;49.920;17.868;2023-08-20T16:54:54;9.20;;;4.10;;
69910;SDS011;63555;49.920;17.868;2023-08-20T16:59:54;8.80;;;5.82;;
69910;SDS011;63555;49.920;17.868;2023-08-20T17:04:55;6.80;;;4.77;;
69910;SDS011;63555;49.920;17.868;2023-08-20T17:09:58;6.73;;;4.10;;
69910;SDS011;63555;49.920;17.868;2023-08-20T17:14:59;6.05;;;4.50;;
69910;SDS011;63555;49.920;17.868;2023-08-20T17:19:59;8.33;;;4.47;;
69910;SDS011;63555;49.920;17.868;2023-08-20T17:24:59;10.87;;;4.90;;
69910;SDS011;63555;49.920;17.868;2023-08-20T17:30:00;6.63;;;4.57;;
69910;SDS011;63555;49.920;17.868;2023-08-20T17:35:04;6.73;;;4.93;;
69910;SDS011;63555;49.920;17.868;2023-08-20T17:40:09;11.35;;;4.70;;
69910;SDS011;63555;49.920;17.868;2023-08-20T17:45:10;7.97;;;4.23;;
69910;SDS011;63555;49.920;17.868;2023-08-20T17:50:10;7.57;;;4.57;;
69910;SDS011;63555;49.920;17.868;2023-08-20T17:55:10;8.37;;;4.67;;
69910;SDS011;63555;49.920;17.868;2023-08-20T18:00:11;8.00;;;5.23;;
69910;SDS011;63555;49.920;17.868;2023-08-20T18:05:12;6.82;;;4.70;;
69910;SDS011;63555;49.920;17.868;2023-08-20T18:10:12;7.53;;;4.80;;
69910;SDS011;63555;49.920;17.868;2023-08-20T18:15:12;6.73;;;4.50;;
69910;SDS011;63555;49.920;17.868;2023-08-20T18:20:13;6.93;;;4.80;;
69910;SDS011;63555;49.920;17.868;2023-08-20T18:25:14;7.97;;;4.60;;
69910;SDS011;63555;49.920;17.868;2023-08-20T18:30:15;6.75;;;4.70;;
69910;SDS011;63555;49.920;17.868;2023-08-20T18:35:16;14.80;;;5.65;;
69910;SDS011;63555;49.920;17.868;2023-08-20T18:40:16;11.97;;;5.10;;
69910;SDS011;63555;49.920;17.868;2023-08-20T18:45:17;21.00;;;5.93;;
69910;SDS011;63555;49.920;17.868;2023-08-20T18:50:18;9.95;;;5.80;;
69910;SDS011;63555;49.920;17.868;2023-08-20T18:55:18;16.30;;;6.00;;
69910;SDS011;63555;49.920;17.868;2023-08-20T19:00:19;19.20;;;6.23;;
69910;SDS011;63555;49.920;17.868;2023-08-20T19:05:22;13.60;;;6.50;;
69910;SDS011;63555;49.920;17.868;2023-08-20T19:10:22;10.15;;;6.13;;
69910;SDS011;63555;49.920;17.868;2023-08-20T19:15:23;11.07;;;6.35;;
69910;SDS011;63555;49.920;17.868;2023-08-20T19:20:23;15.40;;;6.80;;
69910;SDS011;63555;49.920;17.868;2023-08-20T19:25:23;12.20;;;6.03;;
69910;SDS011;63555;49.920;17.868;2023-08-20T19:30:24;12.87;;;6.03;;
69910;SDS011;63555;49.920;17.868;2023-08-20T19:35:27;16.03;;;6.57;;
69910;SDS011;63555;49.920;17.868;2023-08-20T19:40:29;15.38;;;6.32;;
69910;SDS011;63555;49.920;17.868;2023-08-20T19:45:29;13.73;;;6.57;;
69910;SDS011;63555;49.920;17.868;2023-08-20T19:50:30;11.43;;;6.73;;
69910;SDS011;63555;49.920;17.868;2023-08-20T19:55:30;11.20;;;6.63;;
69910;SDS011;63555;49.920;17.868;2023-08-20T20:00:30;11.53;;;6.40;;
69910;SDS011;63555;49.920;17.868;2023-08-20T20:05:31;15.70;;;7.00;;
69910;SDS011;63555;49.920;17.868;2023-08-20T20:10:31;10.10;;;6.27;;
69910;SDS011;63555;49.920;17.868;2023-08-20T20:15:32;11.57;;;6.30;;
69910;SDS011;63555;49.920;17.868;2023-08-20T20:20:32;11.13;;;6.30;;
69910;SDS011;63555;49.920;17.868;2023-08-20T20:25:32;11.07;;;6.53;;
69910;SDS011;63555;49.920;17.868;2023-08-20T20:30:33;9.60;;;6.25;;
69910;SDS011;63555;49.920;17.868;2023-08-20T20:35:33;13.77;;;6.87;;
69910;SDS011;63555;49.920;17.868;2023-08-20T20:40:33;10.43;;;6.57;;
69910;SDS011;63555;49.920;17.868;2023-08-20T20:45:34;8.55;;;6.13;;
69910;SDS011;63555;49.920;17.868;2023-08-20T20:50:34;10.13;;;6.38;;
69910;SDS011;63555;49.920;17.868;2023-08-20T20:55:35;8.73;;;5.82;;
69910;SDS011;63555;49.920;17.868;2023-08-20T21:00:35;13.43;;;6.23;;
69910;SDS011;63555;49.920;17.868;2023-08-20T21:05:40;11.73;;;6.10;;
69910;SDS011;63555;49.920;17.868;2023-08-20T21:10:42;11.70;;;6.00;;
69910;SDS011;63555;49.920;17.868;2023-08-20T21:15:43;10.20;;;6.47;;
69910;SDS011;63555;49.920;17.868;2023-08-20T21:20:44;11.40;;;6.33;;
69910;SDS011;63555;49.920;17.868;2023-08-20T21:25:45;13.00;;;6.30;;
69910;SDS011;63555;49.920;17.868;2023-08-20T21:30:45;12.13;;;6.83;;
69910;SDS011;63555;49.920;17.868;2023-08-20T21:35:45;14.87;;;7.33;;
69910;SDS011;63555;49.920;17.868;2023-08-20T21:40:46;17.87;;;7.20;;
69910;SDS011;63555;49.920;17.868;2023-08-20T21:45:46;9.93;;;6.37;;
69910;SDS011;63555;49.920;17.868;2023-08-20T21:50:47;11.70;;;6.93;;
69910;SDS011;63555;49.920;17.868;2023-08-20T21:55:54;11.40;;;7.03;;
69910;SDS011;63555;49.920;17.868;2023-08-20T22:00:55;12.20;;;7.30;;
69910;SDS011;63555;49.920;17.868;2023-08-20T22:05:55;10.27;;;6.80;;
69910;SDS011;63555;49.920;17.868;2023-08-20T22:10:56;11.17;;;7.23;;
69910;SDS011;63555;49.920;17.868;2023-08-20T22:15:57;11.52;;;7.25;;
69910;SDS011;63555;49.920;17.868;2023-08-20T22:20:57;13.70;;;7.63;;
69910;SDS011;63555;49.920;17.868;2023-08-20T22:25:57;12.85;;;7.82;;
69910;SDS011;63555;49.920;17.868;2023-08-20T22:30:59;15.60;;;7.87;;
69910;SDS011;63555;49.920;17.868;2023-08-20T22:36:00;12.32;;;7.07;;
69910;SDS011;63555;49.920;17.868;2023-08-20T22:41:01;15.27;;;8.10;;
69910;SDS011;63555;49.920;17.868;2023-08-20T22:46:01;9.67;;;6.47;;
69910;SDS011;63555;49.920;17.868;2023-08-20T22:51:02;10.97;;;6.50;;
69910;SDS011;63555;49.920;17.868;2023-08-20T22:56:03;9.15;;;6.30;;
69910;SDS011;63555;49.920;17.868;2023-08-20T23:01:03;11.00;;;6.93;;
69910;SDS011;63555;49.920;17.868;2023-08-20T23:06:04;12.17;;;7.20;;
69910;SDS011;63555;49.920;17.868;2023-08-20T23:11:04;10.93;;;7.17;;
69910;SDS011;63555;49.920;17.868;2023-08-20T23:16:05;11.97;;;6.77;;
69910;SDS011;63555;49.920;17.868;2023-08-20T23:21:05;9.17;;;6.37;;
69910;SDS011;63555;49.920;17.868;2023-08-20T23:26:05;9.40;;;6.00;;
69910;SDS011;63555;49.920;17.868;2023-08-20T23:31:06;9.37;;;6.10;;
69910;SDS011;63555;49.920;17.868;2023-08-20T23:36:07;14.20;;;7.25;;
69910;SDS011;63555;49.920;17.868;2023-08-20T23:41:07;13.87;;;6.70;;
69910;SDS011;63555;49.920;17.868;2023-08-20T23:46:08;10.48;;;6.70;;
69910;SDS011;63555;49.920;17.868;2023-08-20T23:51:08;11.18;;;6.43;;
69910;SDS011;63555;49.920;17.868;2023-08-20T23:56:08;14.98;;;7.18;;
